sensor_id;sensor_type;location;lat;lon;timestamp;P1;durP1;ratioP1;P2;durP2;ratioP2
7571;SDS011;3827;49.928;8.548;2023-02-01T00:01:59;3.90;;;3.60;;
7571;SDS011;3827;49.928;8.548;2023-02-01T00:04:27;4.27;;;3.97;;
7571;SDS011;3827;49.928;8.548;2023-02-01T00:06:54;3.88;;;3.58;;
7571;SDS011;3827;49.928;8.548;2023-02-01T00:09:21;4.40;;;4.00;;
7571;SDS011;3827;49.928;8.548;2023-02-01T00:11:48;4.07;;;3.78;;
7571;SDS011;3827;49.928;8.548;2023-02-01T00:14:16;4.20;;;3.80;;
7571;SDS011;3827;49.928;8.548;2023-02-01T00:16:43;4.15;;;3.85;;
7571;SDS011;3827;49.928;8.548;2023-02-01T00:19:11;4.25;;;3.90;;
7571;SDS011;3827;49.928;8.548;2023-02-01T00:21:38;5.43;;;3.90;;
7571;SDS011;3827;49.928;8.548;2023-02-01T00:24:06;4.50;;;4.10;;
7571;SDS011;3827;49.928;8.548;2023-02-01T00:26:33;4.60;;;4.20;;
7571;SDS011;3827;49.928;8.548;2023-02-01T00:29:02;4.80;;;4.40;;
7571;SDS011;3827;49.928;8.548;2023-02-01T00:31:32;4.78;;;4.38;;
7571;SDS011;3827;49.928;8.548;2023-02-01T00:33:59;4.70;;;4.30;;
7571;SDS011;3827;49.928;8.548;2023-02-01T00:36:26;4.55;;;4.18;;
7571;SDS011;3827;49.928;8.548;2023-02-01T00:38:53;5.47;;;4.97;;
7571;SDS011;3827;49.928;8.548;2023-02-01T00:41:20;4.90;;;4.50;;
7571;SDS011;3827;49.928;8.548;2023-02-01T00:43:48;5.47;;;4.97;;
7571;SDS011;3827;49.928;8.548;2023-02-01T00:46:16;5.18;;;4.75;;
7571;SDS011;3827;49.928;8.548;2023-02-01T00:48:46;5.35;;;4.90;;
7571;SDS011;3827;49.928;8.548;2023-02-01T00:51:14;5.85;;;5.30;;
7571;SDS011;3827;49.928;8.548;2023-02-01T00:53:42;5.13;;;4.70;;
7571;SDS011;3827;49.928;8.548;2023-02-01T00:56:09;6.00;;;5.50;;
7571;SDS011;3827;49.928;8.548;2023-02-01T00:58:36;6.80;;;6.23;;
7571;SDS011;3827;49.928;8.548;2023-02-01T01:01:03;6.97;;;6.38;;
7571;SDS011;3827;49.928;8.548;2023-02-01T01:03:32;6.90;;;6.37;;
7571;SDS011;3827;49.928;8.548;2023-02-01T01:06:01;6.72;;;6.13;;
7571;SDS011;3827;49.928;8.548;2023-02-01T01:08:30;7.53;;;6.82;;
7571;SDS011;3827;49.928;8.548;2023-02-01T01:10:57;7.38;;;6.78;;
7571;SDS011;3827;49.928;8.548;2023-02-01T01:13:24;7.53;;;6.93;;
7571;SDS011;3827;49.928;8.548;2023-02-01T01:15:50;7.70;;;7.00;;
7571;SDS011;3827;49.928;8.548;2023-02-01T01:18:19;7.60;;;6.90;;
7571;SDS011;3827;49.928;8.548;2023-02-01T01:20:47;6.88;;;6.28;;
7571;SDS011;3827;49.928;8.548;2023-02-01T01:23:15;6.73;;;6.20;;
7571;SDS011;3827;49.928;8.548;2023-02-01T01:25:42;6.50;;;6.00;;
7571;SDS011;3827;49.928;8.548;2023-02-01T01:28:08;6.78;;;6.10;;
7571;SDS011;3827;49.928;8.548;2023-02-01T01:30:35;7.15;;;6.07;;
7571;SDS011;3827;49.928;8.548;2023-02-01T01:33:02;7.88;;;6.38;;
7571;SDS011;3827;49.928;8.548;2023-02-01T01:35:29;7.07;;;6.45;;
7571;SDS011;3827;49.928;8.548;2023-02-01T01:37:57;6.43;;;5.93;;
7571;SDS011;3827;49.928;8.548;2023-02-01T01:40:26;7.72;;;6.60;;
7571;SDS011;3827;49.928;8.548;2023-02-01T01:42:53;7.43;;;6.73;;
7571;SDS011;3827;49.928;8.548;2023-02-01T01:45:22;7.22;;;6.55;;
7571;SDS011;3827;49.928;8.548;2023-02-01T01:47:52;7.03;;;6.32;;
7571;SDS011;3827;49.928;8.548;2023-02-01T01:50:21;8.52;;;6.68;;
7571;SDS011;3827;49.928;8.548;2023-02-01T01:52:51;6.60;;;6.00;;
7571;SDS011;3827;49.928;8.548;2023-02-01T01:55:21;7.20;;;6.60;;
7571;SDS011;3827;49.928;8.548;2023-02-01T01:57:51;6.60;;;6.00;;
7571;SDS011;3827;49.928;8.548;2023-02-01T02:00:22;7.22;;;6.53;;
7571;SDS011;3827;49.928;8.548;2023-02-01T02:02:52;7.18;;;6.57;;
7571;SDS011;3827;49.928;8.548;2023-02-01T02:05:22;7.25;;;6.57;;
7571;SDS011;3827;49.928;8.548;2023-02-01T02:07:50;7.63;;;6.83;;
7571;SDS011;3827;49.928;8.548;2023-02-01T02:10:19;7.45;;;6.82;;
7571;SDS011;3827;49.928;8.548;2023-02-01T02:13:07;8.02;;;7.22;;
7571;SDS011;3827;49.928;8.548;2023-02-01T02:15:35;8.37;;;7.57;;
7571;SDS011;3827;49.928;8.548;2023-02-01T02:18:08;7.78;;;7.15;;
7571;SDS011;3827;49.928;8.548;2023-02-01T02:26:50;8.55;;;7.75;;
7571;SDS011;3827;49.928;8.548;2023-02-01T02:29:39;8.60;;;7.80;;
7571;SDS011;3827;49.928;8.548;2023-02-01T02:32:44;8.30;;;7.40;;
7571;SDS011;3827;49.928;8.548;2023-02-01T02:35:27;8.60;;;7.83;;
7571;SDS011;3827;49.928;8.548;2023-02-01T02:38:02;9.55;;;8.68;;
7571;SDS011;3827;49.928;8.548;2023-02-01T02:40:41;8.93;;;8.10;;
7571;SDS011;3827;49.928;8.548;2023-02-01T02:43:15;10.52;;;9.52;;
7571;SDS011;3827;49.928;8.548;2023-02-01T02:46:05;10.03;;;9.00;;
7571;SDS011;3827;49.928;8.548;2023-02-01T02:48:55;12.40;;;9.82;;
7571;SDS011;3827;49.928;8.548;2023-02-01T02:51:35;12.02;;;10.82;;
7571;SDS011;3827;49.928;8.548;2023-02-01T02:54:28;12.00;;;10.80;;
7571;SDS011;3827;49.928;8.548;2023-02-01T02:57:14;12.60;;;11.25;;
7571;SDS011;3827;49.928;8.548;2023-02-01T03:00:03;11.48;;;10.38;;
7571;SDS011;3827;49.928;8.548;2023-02-01T03:02:50;11.02;;;9.93;;
7571;SDS011;3827;49.928;8.548;2023-02-01T03:05:36;11.70;;;10.60;;
7571;SDS011;3827;49.928;8.548;2023-02-01T03:08:11;11.50;;;10.30;;
7571;SDS011;3827;49.928;8.548;2023-02-01T03:10:41;10.98;;;9.98;;
7571;SDS011;3827;49.928;8.548;2023-02-01T03:13:15;11.70;;;10.48;;
7571;SDS011;3827;49.928;8.548;2023-02-01T03:15:50;11.18;;;10.15;;
7571;SDS011;3827;49.928;8.548;2023-02-01T03:18:22;11.95;;;10.50;;
7571;SDS011;3827;49.928;8.548;2023-02-01T03:20:56;11.43;;;10.43;;
7571;SDS011;3827;49.928;8.548;2023-02-01T03:23:31;11.65;;;10.43;;
7571;SDS011;3827;49.928;8.548;2023-02-01T03:26:02;11.18;;;10.18;;
7571;SDS011;3827;49.928;8.548;2023-02-01T03:28:31;12.10;;;10.30;;
7571;SDS011;3827;49.928;8.548;2023-02-01T03:31:01;11.70;;;10.50;;
7571;SDS011;3827;49.928;8.548;2023-02-01T03:33:28;10.60;;;9.53;;
7571;SDS011;3827;49.928;8.548;2023-02-01T03:36:02;10.25;;;9.25;;
7571;SDS011;3827;49.928;8.548;2023-02-01T03:38:38;11.02;;;9.65;;
7571;SDS011;3827;49.928;8.548;2023-02-01T03:41:11;10.20;;;9.25;;
7571;SDS011;3827;49.928;8.548;2023-02-01T03:43:46;10.93;;;9.48;;
7571;SDS011;3827;49.928;8.548;2023-02-01T03:46:19;9.93;;;8.93;;
7571;SDS011;3827;49.928;8.548;2023-02-01T03:48:50;10.38;;;9.38;;
7571;SDS011;3827;49.928;8.548;2023-02-01T03:51:19;10.52;;;9.43;;
7571;SDS011;3827;49.928;8.548;2023-02-01T03:53:48;10.20;;;9.20;;
7571;SDS011;3827;49.928;8.548;2023-02-01T03:56:17;10.23;;;9.00;;
7571;SDS011;3827;49.928;8.548;2023-02-01T03:58:47;10.50;;;9.27;;
7571;SDS011;3827;49.928;8.548;2023-02-01T04:01:24;10.30;;;9.18;;
7571;SDS011;3827;49.928;8.548;2023-02-01T04:03:52;11.45;;;9.30;;
7571;SDS011;3827;49.928;8.548;2023-02-01T04:06:18;10.00;;;8.73;;
7571;SDS011;3827;49.928;8.548;2023-02-01T04:08:45;10.15;;;9.15;;
7571;SDS011;3827;49.928;8.548;2023-02-01T04:11:14;10.30;;;8.88;;
7571;SDS011;3827;49.928;8.548;2023-02-01T04:13:40;10.07;;;8.60;;
7571;SDS011;3827;49.928;8.548;2023-02-01T04:16:07;9.93;;;8.70;;
7571;SDS011;3827;49.928;8.548;2023-02-01T04:18:34;9.40;;;8.50;;
7571;SDS011;3827;49.928;8.548;2023-02-01T04:21:01;8.82;;;8.05;;
7571;SDS011;3827;49.928;8.548;2023-02-01T04:23:28;8.43;;;7.72;;
7571;SDS011;3827;49.928;8.548;2023-02-01T04:25:58;9.00;;;8.07;;
7571;SDS011;3827;49.928;8.548;2023-02-01T04:28:27;8.50;;;7.60;;
7571;SDS011;3827;49.928;8.548;2023-02-01T04:30:54;8.95;;;7.40;;
7571;SDS011;3827;49.928;8.548;2023-02-01T04:33:23;8.68;;;7.88;;
7571;SDS011;3827;49.928;8.548;2023-02-01T04:35:50;8.40;;;7.57;;
7571;SDS011;3827;49.928;8.548;2023-02-01T04:38:17;8.32;;;7.53;;
7571;SDS011;3827;49.928;8.548;2023-02-01T04:40:46;7.75;;;7.05;;
7571;SDS011;3827;49.928;8.548;2023-02-01T04:43:16;7.90;;;7.10;;
7571;SDS011;3827;49.928;8.548;2023-02-01T04:45:47;8.43;;;6.77;;
7571;SDS011;3827;49.928;8.548;2023-02-01T04:48:14;8.38;;;6.57;;
7571;SDS011;3827;49.928;8.548;2023-02-01T04:50:42;7.20;;;6.50;;
7571;SDS011;3827;49.928;8.548;2023-02-01T04:53:12;7.60;;;6.65;;
7571;SDS011;3827;49.928;8.548;2023-02-01T04:55:39;6.70;;;5.85;;
7571;SDS011;3827;49.928;8.548;2023-02-01T04:58:06;7.70;;;6.13;;
7571;SDS011;3827;49.928;8.548;2023-02-01T05:00:33;6.63;;;6.00;;
7571;SDS011;3827;49.928;8.548;2023-02-01T05:03:01;6.50;;;5.90;;
7571;SDS011;3827;49.928;8.548;2023-02-01T05:05:28;6.10;;;5.45;;
7571;SDS011;3827;49.928;8.548;2023-02-01T05:07:55;6.35;;;5.63;;
7571;SDS011;3827;49.928;8.548;2023-02-01T05:10:22;5.93;;;5.33;;
7571;SDS011;3827;49.928;8.548;2023-02-01T05:12:49;6.65;;;5.05;;
7571;SDS011;3827;49.928;8.548;2023-02-01T05:15:33;5.95;;;5.25;;
7571;SDS011;3827;49.928;8.548;2023-02-01T05:18:02;5.43;;;4.88;;
7571;SDS011;3827;49.928;8.548;2023-02-01T05:20:29;5.40;;;4.75;;
7571;SDS011;3827;49.928;8.548;2023-02-01T05:22:55;5.60;;;4.75;;
7571;SDS011;3827;49.928;8.548;2023-02-01T05:25:22;5.43;;;4.13;;
7571;SDS011;3827;49.928;8.548;2023-02-01T05:27:49;5.60;;;4.18;;
7571;SDS011;3827;49.928;8.548;2023-02-01T05:30:16;4.30;;;3.63;;
7571;SDS011;3827;49.928;8.548;2023-02-01T05:32:43;5.85;;;3.67;;
7571;SDS011;3827;49.928;8.548;2023-02-01T05:35:11;5.50;;;3.70;;
7571;SDS011;3827;49.928;8.548;2023-02-01T05:37:38;5.60;;;3.33;;
7571;SDS011;3827;49.928;8.548;2023-02-01T05:40:05;6.80;;;3.50;;
7571;SDS011;3827;49.928;8.548;2023-02-01T05:42:32;7.47;;;3.65;;
7571;SDS011;3827;49.928;8.548;2023-02-01T05:44:59;5.47;;;3.03;;
7571;SDS011;3827;49.928;8.548;2023-02-01T05:47:26;5.72;;;3.33;;
7571;SDS011;3827;49.928;8.548;2023-02-01T05:49:53;7.32;;;3.30;;
7571;SDS011;3827;49.928;8.548;2023-02-01T05:52:21;7.07;;;3.40;;
7571;SDS011;3827;49.928;8.548;2023-02-01T05:54:48;5.93;;;3.17;;
7571;SDS011;3827;49.928;8.548;2023-02-01T05:57:15;4.80;;;2.92;;
7571;SDS011;3827;49.928;8.548;2023-02-01T05:59:42;6.28;;;2.80;;
7571;SDS011;3827;49.928;8.548;2023-02-01T06:02:09;4.93;;;2.20;;
7571;SDS011;3827;49.928;8.548;2023-02-01T06:04:36;3.72;;;2.17;;
7571;SDS011;3827;49.928;8.548;2023-02-01T06:07:04;4.17;;;2.27;;
7571;SDS011;3827;49.928;8.548;2023-02-01T06:09:33;3.60;;;2.00;;
7571;SDS011;3827;49.928;8.548;2023-02-01T06:12:00;2.85;;;1.77;;
7571;SDS011;3827;49.928;8.548;2023-02-01T06:14:27;3.10;;;1.77;;
7571;SDS011;3827;49.928;8.548;2023-02-01T06:16:54;2.83;;;1.65;;
7571;SDS011;3827;49.928;8.548;2023-02-01T06:19:21;3.17;;;1.70;;
7571;SDS011;3827;49.928;8.548;2023-02-01T06:21:47;3.58;;;1.90;;
7571;SDS011;3827;49.928;8.548;2023-02-01T06:24:14;2.30;;;1.50;;
7571;SDS011;3827;49.928;8.548;2023-02-01T06:26:43;2.88;;;1.55;;
7571;SDS011;3827;49.928;8.548;2023-02-01T06:29:10;4.03;;;2.20;;
7571;SDS011;3827;49.928;8.548;2023-02-01T06:31:37;3.22;;;1.70;;
7571;SDS011;3827;49.928;8.548;2023-02-01T06:34:04;4.63;;;2.25;;
7571;SDS011;3827;49.928;8.548;2023-02-01T06:36:31;5.03;;;2.20;;
7571;SDS011;3827;49.928;8.548;2023-02-01T06:38:58;4.75;;;2.40;;
7571;SDS011;3827;49.928;8.548;2023-02-01T06:41:25;4.25;;;2.15;;
7571;SDS011;3827;49.928;8.548;2023-02-01T06:43:53;6.00;;;2.97;;
7571;SDS011;3827;49.928;8.548;2023-02-01T06:46:20;7.30;;;3.20;;
7571;SDS011;3827;49.928;8.548;2023-02-01T06:48:46;6.72;;;3.58;;
7571;SDS011;3827;49.928;8.548;2023-02-01T06:51:18;5.82;;;3.22;;
7571;SDS011;3827;49.928;8.548;2023-02-01T06:53:46;7.65;;;3.30;;
7571;SDS011;3827;49.928;8.548;2023-02-01T06:56:13;5.03;;;2.67;;
7571;SDS011;3827;49.928;8.548;2023-02-01T06:58:40;7.88;;;3.05;;
7571;SDS011;3827;49.928;8.548;2023-02-01T07:01:08;7.28;;;2.75;;
7571;SDS011;3827;49.928;8.548;2023-02-01T07:03:36;7.53;;;2.65;;
7571;SDS011;3827;49.928;8.548;2023-02-01T07:06:04;6.45;;;2.90;;
7571;SDS011;3827;49.928;8.548;2023-02-01T07:08:32;5.50;;;2.58;;
7571;SDS011;3827;49.928;8.548;2023-02-01T07:11:01;6.60;;;3.00;;
7571;SDS011;3827;49.928;8.548;2023-02-01T07:13:28;6.45;;;2.72;;
7571;SDS011;3827;49.928;8.548;2023-02-01T07:15:57;5.35;;;2.67;;
7571;SDS011;3827;49.928;8.548;2023-02-01T07:18:26;7.88;;;3.08;;
7571;SDS011;3827;49.928;8.548;2023-02-01T07:20:53;8.88;;;3.30;;
7571;SDS011;3827;49.928;8.548;2023-02-01T07:23:19;5.57;;;2.95;;
7571;SDS011;3827;49.928;8.548;2023-02-01T07:25:46;5.95;;;2.97;;
7571;SDS011;3827;49.928;8.548;2023-02-01T07:28:13;5.80;;;2.75;;
7571;SDS011;3827;49.928;8.548;2023-02-01T07:30:40;7.38;;;3.13;;
7571;SDS011;3827;49.928;8.548;2023-02-01T07:33:09;4.82;;;2.65;;
7571;SDS011;3827;49.928;8.548;2023-02-01T07:35:37;5.78;;;3.10;;
7571;SDS011;3827;49.928;8.548;2023-02-01T07:38:04;5.00;;;3.20;;
7571;SDS011;3827;49.928;8.548;2023-02-01T07:40:33;6.68;;;3.10;;
7571;SDS011;3827;49.928;8.548;2023-02-01T07:43:00;6.65;;;3.22;;
7571;SDS011;3827;49.928;8.548;2023-02-01T07:45:31;6.82;;;3.30;;
7571;SDS011;3827;49.928;8.548;2023-02-01T07:48:04;6.28;;;3.60;;
7571;SDS011;3827;49.928;8.548;2023-02-01T07:50:32;6.78;;;3.47;;
7571;SDS011;3827;49.928;8.548;2023-02-01T07:53:00;8.57;;;3.58;;
7571;SDS011;3827;49.928;8.548;2023-02-01T07:55:27;8.38;;;3.58;;
7571;SDS011;3827;49.928;8.548;2023-02-01T07:57:56;9.70;;;4.30;;
7571;SDS011;3827;49.928;8.548;2023-02-01T08:00:24;7.93;;;3.90;;
7571;SDS011;3827;49.928;8.548;2023-02-01T08:03:09;9.82;;;3.70;;
7571;SDS011;3827;49.928;8.548;2023-02-01T08:05:36;10.57;;;3.97;;
7571;SDS011;3827;49.928;8.548;2023-02-01T08:08:04;10.68;;;4.00;;
7571;SDS011;3827;49.928;8.548;2023-02-01T08:10:32;9.70;;;3.60;;
7571;SDS011;3827;49.928;8.548;2023-02-01T08:13:01;9.90;;;4.20;;
7571;SDS011;3827;49.928;8.548;2023-02-01T08:15:29;9.18;;;3.92;;
7571;SDS011;3827;49.928;8.548;2023-02-01T08:17:56;9.60;;;4.50;;
7571;SDS011;3827;49.928;8.548;2023-02-01T08:20:23;10.15;;;4.13;;
7571;SDS011;3827;49.928;8.548;2023-02-01T08:22:52;9.13;;;3.90;;
7571;SDS011;3827;49.928;8.548;2023-02-01T08:25:21;9.85;;;3.72;;
7571;SDS011;3827;49.928;8.548;2023-02-01T08:27:49;11.35;;;4.10;;
7571;SDS011;3827;49.928;8.548;2023-02-01T08:30:16;10.60;;;4.10;;
7571;SDS011;3827;49.928;8.548;2023-02-01T08:32:43;12.50;;;4.33;;
7571;SDS011;3827;49.928;8.548;2023-02-01T08:35:10;12.38;;;4.28;;
7571;SDS011;3827;49.928;8.548;2023-02-01T08:37:37;11.53;;;4.10;;
7571;SDS011;3827;49.928;8.548;2023-02-01T08:40:04;11.23;;;3.83;;
7571;SDS011;3827;49.928;8.548;2023-02-01T08:42:33;10.70;;;4.10;;
7571;SDS011;3827;49.928;8.548;2023-02-01T08:45:19;10.35;;;4.40;;
7571;SDS011;3827;49.928;8.548;2023-02-01T08:47:48;10.07;;;3.53;;
7571;SDS011;3827;49.928;8.548;2023-02-01T08:50:16;8.35;;;3.13;;
7571;SDS011;3827;49.928;8.548;2023-02-01T08:52:44;8.43;;;3.42;;
7571;SDS011;3827;49.928;8.548;2023-02-01T08:55:11;9.25;;;3.65;;
7571;SDS011;3827;49.928;8.548;2023-02-01T08:57:40;11.25;;;3.88;;
7571;SDS011;3827;49.928;8.548;2023-02-01T09:00:08;10.50;;;3.80;;
7571;SDS011;3827;49.928;8.548;2023-02-01T09:02:40;8.25;;;3.50;;
7571;SDS011;3827;49.928;8.548;2023-02-01T09:05:07;9.80;;;3.67;;
7571;SDS011;3827;49.928;8.548;2023-02-01T09:07:35;9.35;;;3.58;;
7571;SDS011;3827;49.928;8.548;2023-02-01T09:10:03;8.40;;;3.50;;
7571;SDS011;3827;49.928;8.548;2023-02-01T09:12:31;9.75;;;3.40;;
7571;SDS011;3827;49.928;8.548;2023-02-01T09:15:00;9.57;;;3.60;;
7571;SDS011;3827;49.928;8.548;2023-02-01T09:17:28;9.88;;;3.45;;
7571;SDS011;3827;49.928;8.548;2023-02-01T09:19:55;8.48;;;3.17;;
7571;SDS011;3827;49.928;8.548;2023-02-01T09:22:24;11.80;;;3.55;;
7571;SDS011;3827;49.928;8.548;2023-02-01T09:24:51;9.70;;;3.42;;
7571;SDS011;3827;49.928;8.548;2023-02-01T09:27:18;9.48;;;3.40;;
7571;SDS011;3827;49.928;8.548;2023-02-01T09:29:45;11.75;;;3.42;;
7571;SDS011;3827;49.928;8.548;2023-02-01T09:32:18;9.13;;;3.15;;
7571;SDS011;3827;49.928;8.548;2023-02-01T09:34:45;10.20;;;3.10;;
7571;SDS011;3827;49.928;8.548;2023-02-01T09:37:12;9.52;;;3.35;;
7571;SDS011;3827;49.928;8.548;2023-02-01T09:39:39;9.87;;;3.53;;
7571;SDS011;3827;49.928;8.548;2023-02-01T09:42:12;8.18;;;3.13;;
7571;SDS011;3827;49.928;8.548;2023-02-01T09:47:46;9.40;;;3.10;;
7571;SDS011;3827;49.928;8.548;2023-02-01T09:50:15;8.95;;;3.22;;
7571;SDS011;3827;49.928;8.548;2023-02-01T09:52:47;9.05;;;3.35;;
7571;SDS011;3827;49.928;8.548;2023-02-01T09:55:20;10.52;;;3.67;;
7571;SDS011;3827;49.928;8.548;2023-02-01T09:57:53;8.40;;;3.10;;
7571;SDS011;3827;49.928;8.548;2023-02-01T10:00:25;9.20;;;3.05;;
7571;SDS011;3827;49.928;8.548;2023-02-01T10:02:56;10.13;;;3.05;;
7571;SDS011;3827;49.928;8.548;2023-02-01T10:05:28;9.80;;;3.40;;
7571;SDS011;3827;49.928;8.548;2023-02-01T10:08:07;7.85;;;3.25;;
7571;SDS011;3827;49.928;8.548;2023-02-01T10:10:40;8.00;;;2.83;;
7571;SDS011;3827;49.928;8.548;2023-02-01T10:13:22;8.63;;;3.60;;
7571;SDS011;3827;49.928;8.548;2023-02-01T10:16:07;9.85;;;3.38;;
7571;SDS011;3827;49.928;8.548;2023-02-01T10:18:51;9.23;;;3.08;;
7571;SDS011;3827;49.928;8.548;2023-02-01T10:21:28;7.82;;;2.78;;
7571;SDS011;3827;49.928;8.548;2023-02-01T10:24:11;8.87;;;3.20;;
7571;SDS011;3827;49.928;8.548;2023-02-01T10:26:55;9.40;;;2.88;;
7571;SDS011;3827;49.928;8.548;2023-02-01T10:29:29;9.07;;;3.40;;
7571;SDS011;3827;49.928;8.548;2023-02-01T10:32:00;10.03;;;2.90;;
7571;SDS011;3827;49.928;8.548;2023-02-01T10:34:31;8.77;;;2.90;;
7571;SDS011;3827;49.928;8.548;2023-02-01T10:37:00;8.98;;;3.00;;
7571;SDS011;3827;49.928;8.548;2023-02-01T10:39:33;9.20;;;3.08;;
7571;SDS011;3827;49.928;8.548;2023-02-01T10:42:02;9.20;;;3.30;;
7571;SDS011;3827;49.928;8.548;2023-02-01T10:44:29;7.80;;;2.70;;
7571;SDS011;3827;49.928;8.548;2023-02-01T10:46:57;8.13;;;2.67;;
7571;SDS011;3827;49.928;8.548;2023-02-01T10:49:26;9.13;;;3.20;;
7571;SDS011;3827;49.928;8.548;2023-02-01T10:52:00;8.32;;;3.05;;
7571;SDS011;3827;49.928;8.548;2023-02-01T10:54:32;7.78;;;2.90;;
7571;SDS011;3827;49.928;8.548;2023-02-01T10:57:00;7.97;;;3.13;;
7571;SDS011;3827;49.928;8.548;2023-02-01T10:59:27;7.93;;;3.00;;
7571;SDS011;3827;49.928;8.548;2023-02-01T11:01:58;8.85;;;3.17;;
7571;SDS011;3827;49.928;8.548;2023-02-01T11:04:26;9.70;;;3.13;;
7571;SDS011;3827;49.928;8.548;2023-02-01T11:07:05;9.32;;;3.13;;
7571;SDS011;3827;49.928;8.548;2023-02-01T11:09:35;10.70;;;3.95;;
7571;SDS011;3827;49.928;8.548;2023-02-01T11:12:07;8.93;;;3.08;;
7571;SDS011;3827;49.928;8.548;2023-02-01T11:14:49;8.80;;;3.00;;
7571;SDS011;3827;49.928;8.548;2023-02-01T11:17:18;9.23;;;3.20;;
7571;SDS011;3827;49.928;8.548;2023-02-01T11:19:55;9.48;;;3.38;;
7571;SDS011;3827;49.928;8.548;2023-02-01T11:22:25;8.63;;;3.08;;
7571;SDS011;3827;49.928;8.548;2023-02-01T11:24:54;8.57;;;3.40;;
7571;SDS011;3827;49.928;8.548;2023-02-01T11:27:22;10.10;;;3.80;;
7571;SDS011;3827;49.928;8.548;2023-02-01T11:29:51;9.52;;;3.53;;
7571;SDS011;3827;49.928;8.548;2023-02-01T11:32:22;8.18;;;2.95;;
7571;SDS011;3827;49.928;8.548;2023-02-01T11:34:51;8.35;;;3.25;;
7571;SDS011;3827;49.928;8.548;2023-02-01T11:37:23;8.75;;;3.25;;
7571;SDS011;3827;49.928;8.548;2023-02-01T11:39:54;8.00;;;2.97;;
7571;SDS011;3827;49.928;8.548;2023-02-01T11:42:22;7.35;;;2.72;;
7571;SDS011;3827;49.928;8.548;2023-02-01T11:44:49;10.00;;;3.05;;
7571;SDS011;3827;49.928;8.548;2023-02-01T11:47:20;10.77;;;3.35;;
7571;SDS011;3827;49.928;8.548;2023-02-01T11:49:50;9.98;;;3.60;;
7571;SDS011;3827;49.928;8.548;2023-02-01T11:52:21;7.82;;;3.33;;
7571;SDS011;3827;49.928;8.548;2023-02-01T11:55:03;11.60;;;5.57;;
7571;SDS011;3827;49.928;8.548;2023-02-01T11:58:03;9.73;;;3.97;;
7571;SDS011;3827;49.928;8.548;2023-02-01T12:00:48;8.35;;;3.15;;
7571;SDS011;3827;49.928;8.548;2023-02-01T12:03:36;8.85;;;2.83;;
7571;SDS011;3827;49.928;8.548;2023-02-01T12:06:21;9.52;;;3.00;;
7571;SDS011;3827;49.928;8.548;2023-02-01T12:09:02;10.68;;;3.30;;
7571;SDS011;3827;49.928;8.548;2023-02-01T12:11:46;9.10;;;3.50;;
7571;SDS011;3827;49.928;8.548;2023-02-01T12:14:22;8.00;;;3.00;;
7571;SDS011;3827;49.928;8.548;2023-02-01T12:16:57;9.90;;;2.97;;
7571;SDS011;3827;49.928;8.548;2023-02-01T12:19:41;9.25;;;2.95;;
7571;SDS011;3827;49.928;8.548;2023-02-01T12:22:31;7.95;;;3.03;;
7571;SDS011;3827;49.928;8.548;2023-02-01T12:25:20;8.10;;;3.17;;
7571;SDS011;3827;49.928;8.548;2023-02-01T12:28:02;9.02;;;2.95;;
7571;SDS011;3827;49.928;8.548;2023-02-01T12:30:41;9.30;;;3.15;;
7571;SDS011;3827;49.928;8.548;2023-02-01T12:33:18;10.35;;;3.10;;
7571;SDS011;3827;49.928;8.548;2023-02-01T12:35:55;9.07;;;3.47;;
7571;SDS011;3827;49.928;8.548;2023-02-01T12:38:44;10.40;;;3.10;;
7571;SDS011;3827;49.928;8.548;2023-02-01T12:41:31;9.70;;;2.67;;
7571;SDS011;3827;49.928;8.548;2023-02-01T12:44:17;9.40;;;2.63;;
7571;SDS011;3827;49.928;8.548;2023-02-01T12:46:52;9.18;;;3.15;;
7571;SDS011;3827;49.928;8.548;2023-02-01T12:49:23;8.02;;;2.92;;
7571;SDS011;3827;49.928;8.548;2023-02-01T12:51:58;9.32;;;3.05;;
7571;SDS011;3827;49.928;8.548;2023-02-01T12:54:32;7.40;;;2.77;;
7571;SDS011;3827;49.928;8.548;2023-02-01T12:57:06;8.00;;;2.85;;
7571;SDS011;3827;49.928;8.548;2023-02-01T12:59:38;9.40;;;2.90;;
7571;SDS011;3827;49.928;8.548;2023-02-01T13:02:11;8.98;;;3.10;;
7571;SDS011;3827;49.928;8.548;2023-02-01T13:04:47;7.72;;;2.85;;
7571;SDS011;3827;49.928;8.548;2023-02-01T13:07:24;10.45;;;3.17;;
7571;SDS011;3827;49.928;8.548;2023-02-01T13:09:56;10.23;;;3.15;;
7571;SDS011;3827;49.928;8.548;2023-02-01T13:12:30;7.60;;;3.00;;
7571;SDS011;3827;49.928;8.548;2023-02-01T13:15:00;7.18;;;2.90;;
7571;SDS011;3827;49.928;8.548;2023-02-01T13:17:31;9.48;;;3.25;;
7571;SDS011;3827;49.928;8.548;2023-02-01T13:20:00;10.17;;;3.20;;
7571;SDS011;3827;49.928;8.548;2023-02-01T13:22:32;9.87;;;2.90;;
7571;SDS011;3827;49.928;8.548;2023-02-01T13:25:02;6.18;;;2.60;;
7571;SDS011;3827;49.928;8.548;2023-02-01T13:27:38;9.30;;;3.20;;
7571;SDS011;3827;49.928;8.548;2023-02-01T13:30:07;11.02;;;3.35;;
7571;SDS011;3827;49.928;8.548;2023-02-01T13:35:44;7.65;;;3.30;;
7571;SDS011;3827;49.928;8.548;2023-02-01T13:41:16;9.50;;;2.90;;
7571;SDS011;3827;49.928;8.548;2023-02-01T13:43:54;9.85;;;3.40;;
7571;SDS011;3827;49.928;8.548;2023-02-01T13:46:24;7.57;;;2.90;;
7571;SDS011;3827;49.928;8.548;2023-02-01T13:48:52;8.50;;;3.15;;
7571;SDS011;3827;49.928;8.548;2023-02-01T13:51:31;7.93;;;2.80;;
7571;SDS011;3827;49.928;8.548;2023-02-01T13:54:01;10.10;;;3.10;;
7571;SDS011;3827;49.928;8.548;2023-02-01T13:56:38;7.50;;;2.67;;
7571;SDS011;3827;49.928;8.548;2023-02-01T14:08:25;9.20;;;2.78;;
7571;SDS011;3827;49.928;8.548;2023-02-01T14:11:04;9.25;;;2.88;;
7571;SDS011;3827;49.928;8.548;2023-02-01T14:13:32;10.00;;;3.15;;
7571;SDS011;3827;49.928;8.548;2023-02-01T14:16:15;10.13;;;2.92;;
7571;SDS011;3827;49.928;8.548;2023-02-01T14:18:54;8.57;;;3.10;;
7571;SDS011;3827;49.928;8.548;2023-02-01T14:21:28;7.47;;;2.35;;
7571;SDS011;3827;49.928;8.548;2023-02-01T14:23:58;9.30;;;3.05;;
7571;SDS011;3827;49.928;8.548;2023-02-01T14:26:27;7.97;;;2.95;;
7571;SDS011;3827;49.928;8.548;2023-02-01T14:29:20;8.35;;;2.70;;
7571;SDS011;3827;49.928;8.548;2023-02-01T14:32:00;9.63;;;2.92;;
7571;SDS011;3827;49.928;8.548;2023-02-01T14:34:35;7.60;;;2.80;;
7571;SDS011;3827;49.928;8.548;2023-02-01T14:37:08;8.77;;;3.05;;
7571;SDS011;3827;49.928;8.548;2023-02-01T14:39:46;8.18;;;2.70;;
7571;SDS011;3827;49.928;8.548;2023-02-01T14:42:19;7.97;;;2.85;;
7571;SDS011;3827;49.928;8.548;2023-02-01T14:44:50;7.57;;;2.22;;
7571;SDS011;3827;49.928;8.548;2023-02-01T14:47:29;6.20;;;2.60;;
7571;SDS011;3827;49.928;8.548;2023-02-01T14:50:00;7.53;;;2.58;;
7571;SDS011;3827;49.928;8.548;2023-02-01T14:55:57;7.10;;;2.63;;
7571;SDS011;3827;49.928;8.548;2023-02-01T14:58:34;6.68;;;2.67;;
7571;SDS011;3827;49.928;8.548;2023-02-01T15:01:05;6.63;;;2.60;;
7571;SDS011;3827;49.928;8.548;2023-02-01T15:03:43;6.90;;;2.70;;
7571;SDS011;3827;49.928;8.548;2023-02-01T15:06:21;6.53;;;2.90;;
7571;SDS011;3827;49.928;8.548;2023-02-01T15:09:00;8.05;;;2.88;;
7571;SDS011;3827;49.928;8.548;2023-02-01T15:11:29;8.03;;;3.07;;
7571;SDS011;3827;49.928;8.548;2023-02-01T15:13:56;9.05;;;3.03;;
7571;SDS011;3827;49.928;8.548;2023-02-01T15:16:25;8.25;;;3.28;;
7571;SDS011;3827;49.928;8.548;2023-02-01T15:21:43;6.47;;;2.92;;
7571;SDS011;3827;49.928;8.548;2023-02-01T15:24:11;7.82;;;3.05;;
7571;SDS011;3827;49.928;8.548;2023-02-01T15:26:39;7.50;;;2.90;;
7571;SDS011;3827;49.928;8.548;2023-02-01T15:29:09;9.53;;;3.20;;
7571;SDS011;3827;49.928;8.548;2023-02-01T15:31:39;9.63;;;3.38;;
7571;SDS011;3827;49.928;8.548;2023-02-01T15:34:07;5.95;;;2.70;;
7571;SDS011;3827;49.928;8.548;2023-02-01T15:36:36;8.35;;;2.80;;
7571;SDS011;3827;49.928;8.548;2023-02-01T15:39:13;7.85;;;2.75;;
7571;SDS011;3827;49.928;8.548;2023-02-01T15:41:44;7.00;;;2.67;;
7571;SDS011;3827;49.928;8.548;2023-02-01T15:44:20;6.03;;;2.58;;
7571;SDS011;3827;49.928;8.548;2023-02-01T15:46:56;7.90;;;2.65;;
7571;SDS011;3827;49.928;8.548;2023-02-01T15:49:27;7.70;;;2.70;;
7571;SDS011;3827;49.928;8.548;2023-02-01T15:51:56;6.68;;;2.58;;
7571;SDS011;3827;49.928;8.548;2023-02-01T15:54:26;7.65;;;2.60;;
7571;SDS011;3827;49.928;8.548;2023-02-01T15:56:56;6.07;;;2.35;;
7571;SDS011;3827;49.928;8.548;2023-02-01T15:59:28;8.07;;;2.53;;
7571;SDS011;3827;49.928;8.548;2023-02-01T16:01:58;7.88;;;2.78;;
7571;SDS011;3827;49.928;8.548;2023-02-01T16:04:26;9.02;;;2.80;;
7571;SDS011;3827;49.928;8.548;2023-02-01T16:06:56;7.50;;;3.05;;
7571;SDS011;3827;49.928;8.548;2023-02-01T16:09:35;7.85;;;3.00;;